Hovedside
METAR-TAF:

METAR-TAF

Lufthavner :

Yap, Mikronesia

breddegrad: 09-29N, lengdegrad: 138-05E, høyde over havet: 28 m

Gjeldene værobservasjon

Denne rapporten ble laget for 39 minutter siden, klokken 17:51 UTC
Vind 4 kt fra skiftende retning
Temperatur 27°C
Luftfuktighet 84%
Trykk 1007 hPa
Sikt: 19.3 km
Få skyer i en høyde av 1600 ft
Brutte skyer i en høyde av 30000 ft

METAR: PTYA 241751Z VRB04KT 12SM FEW016 BKN300 27/24 A2974 RMK SLP073 8/101 T02660241 10282 20266 57012

Tid: 04:30 (18:30 UTC)

Varsel

Denne rapporten ble laget for 52 minutter siden, klokken 17:38 UTC
Varsel gyldig fra 24. klokken 18 UTC til 25. klokken 18 UTC
Vind 5 kt fra skiftende retning
Sikt: 10 km
Få skyer i en høyde av 1800 ft

TAF: PTYA 241738Z 2418/2518 VRB05KT P6SM FEW018

Værobservasjoner og værvarsel for over 4000 flyplasser (METAR- og TAF-rapporter).

Tilgjengelige stasjoner er representert av de røde og gule prikkene på kartet.

Hold musepekeren over prikken for å se navnet på stasjonen.

Klikk så for å se værobservasjoner og -varsler.

For å forandre kartet kan du klikke på den grønne knappen med svart kryss for å zoome inn, på den grønne knappen med strek for å zoome ut, eller på de grønne pilene for å se tilstøtende kart.


METAR-TAF: